Wetterstation Vordersexau
Wetterdaten: Woche 29.07.13 - 04.08.13 (KW31)
Datum Zeit Temp. A. Feuchte A. Luftdruck Regen Wind Richtung Taupunkt Windchill Windben
29.07.2013 00:00 17,5 C 72 % 1013,7 hPa 0,5 l/m 0,0 km/h S-SO 12,4 C 17,5 C 0,0 km/h
29.07.2013 01:00 17,4 C 70 % 1014,7 hPa 1,0 l/m 0,0 km/h SO 11,9 C 17,4 C 0,0 km/h
29.07.2013 02:00 17,3 C 68 % 1013,5 hPa 2,1 l/m 0,0 km/h NO 11,3 C 17,3 C 0,0 km/h
29.07.2013 03:00 17,3 C 66 % 1014,8 hPa 0,5 l/m 0,0 km/h S-SO 10,9 C 17,3 C 0,0 km/h
29.07.2013 04:00 17,1 C 65 % 1014,6 hPa 1,6 l/m 0,0 km/h SO 10,5 C 17,1 C 0,0 km/h
29.07.2013 05:00 17,1 C 64 % 1014,4 hPa 0,0 l/m 0,0 km/h O-SO 10,2 C 17,1 C 0,0 km/h
29.07.2013 06:00 17,2 C 63 % 1014,5 hPa 0,0 l/m 0,0 km/h O-SO 10,1 C 17,2 C 0,0 km/h
29.07.2013 07:00 17,4 C 62 % 1014,3 hPa 0,0 l/m 0,0 km/h SO 10,0 C 17,4 C 0,0 km/h
29.07.2013 08:00 18,1 C 59 % 1014,1 hPa 0,0 l/m 0,0 km/h S 10,0 C 18,1 C 0,0 km/h
29.07.2013 09:00 18,6 C 62 % 1014,5 hPa 0,5 l/m 0,0 km/h S-SO 11,2 C 18,6 C 0,0 km/h
29.07.2013 10:00 19,5 C 68 % 1014,1 hPa 0,0 l/m 1,3 km/h S-SO 13,4 C 19,5 C 0,7 km/h
29.07.2013 11:00 19,2 C 74 % 1014,3 hPa 0,0 l/m 0,0 km/h NW 14,4 C 19,2 C 0,0 km/h
29.07.2013 12:00 18,4 C 72 % 1013,7 hPa 2,6 l/m 0,0 km/h W-SW 13,3 C 18,4 C 0,0 km/h
29.07.2013 13:00 17,8 C 68 % 1014,3 hPa 3,1 l/m 0,0 km/h W 11,8 C 17,8 C 0,0 km/h
29.07.2013 14:00 17,9 C 64 % 1014,2 hPa 3,6 l/m 1,3 km/h N 11,0 C 17,9 C 0,7 km/h
29.07.2013 15:00 17,8 C 59 % 1015,6 hPa 5,2 l/m 3,2 km/h S-SO 9,7 C 17,8 C 1,8 km/h
29.07.2013 16:00 17,3 C 61 % 1016,8 hPa 7,3 l/m 0,0 km/h W-NW 9,7 C 17,3 C 0,0 km/h
29.07.2013 17:00 18,1 C 58 % 1017,1 hPa 1,6 l/m 1,3 km/h SW 9,7 C 18,1 C 0,7 km/h
29.07.2013 18:00 19,8 C 80 % 1017,8 hPa 0,0 l/m 1,9 km/h SW 16,2 C 19,8 C 1,1 km/h
29.07.2013 19:00 19,3 C 82 % 1018,1 hPa 0,0 l/m 5,2 km/h S-SW 16,1 C 19,3 C 2,9 km/h
29.07.2013 20:00 19,6 C 78 % 1018,4 hPa 0,0 l/m 1,3 km/h S 15,7 C 19,6 C 0,7 km/h
29.07.2013 21:00 17,1 C 82 % 1018,6 hPa 0,0 l/m 8,4 km/h S-SW 14,0 C 16,1 C 4,7 km/h
29.07.2013 22:00 17,8 C 81 % 1018,9 hPa 0,0 l/m 0,0 km/h O-NO 14,5 C 17,8 C 0,0 km/h
29.07.2013 23:00 15,8 C 80 % 1019,1 hPa 0,0 l/m 3,2 km/h O-NO 12,4 C 15,8 C 1,8 km/h
30.07.2013 00:00 15,8 C 76 % 1019,4 hPa 0,0 l/m 0,6 km/h O-NO 11,6 C 15,8 C 0,4 km/h
30.07.2013 01:00 16,2 C 76 % 1019,4 hPa 0,0 l/m 0,0 km/h O-NO 12,0 C 16,2 C 0,0 km/h
30.07.2013 02:00 15,8 C 73 % 1019,8 hPa 0,0 l/m 0,0 km/h W-NW 11,0 C 15,8 C 0,0 km/h
30.07.2013 03:00 16,3 C 71 % 1019,8 hPa 0,0 l/m 0,0 km/h O 11,0 C 16,3 C 0,0 km/h
30.07.2013 04:00 16,0 C 80 % 1019,9 hPa 0,0 l/m 0,0 km/h O-NO 12,5 C 16,0 C 0,0 km/h
30.07.2013 05:00 15,5 C 79 % 1019,9 hPa 0,0 l/m 0,0 km/h NO 11,9 C 15,5 C 0,0 km/h
30.07.2013 06:00 14,6 C 74 % 1020,1 hPa 0,0 l/m 0,0 km/h O-NO 10,0 C 14,6 C 0,0 km/h
30.07.2013 07:00 15,4 C 70 % 1020,2 hPa 0,0 l/m 0,0 km/h W-NW 10,0 C 15,4 C 0,0 km/h
30.07.2013 08:00 23,5 C 72 % 1020,4 hPa 0,0 l/m 9,7 km/h W 18,2 C 22,6 C 5,4 km/h
30.07.2013 09:00 21,4 C 72 % 1020,5 hPa 0,0 l/m 22,7 km/h NW 16,1 C 17,6 C 12,6 km/h
30.07.2013 10:00 24,8 C 62 % 1020,4 hPa 0,0 l/m 16,8 km/h W-SW 17,0 C 22,8 C 9,4 km/h
30.07.2013 11:00 22,8 C 64 % 1020,5 hPa 0,0 l/m 5,2 km/h W-NW 15,6 C 22,8 C 2,9 km/h
30.07.2013 12:00 24,8 C 59 % 1020,1 hPa 0,0 l/m 16,2 km/h NW 16,2 C 22,9 C 9,0 km/h
30.07.2013 13:00 26,3 C 54 % 1020,1 hPa 0,0 l/m 14,3 km/h N-NW 16,2 C 25,0 C 7,9 km/h
30.07.2013 14:00 26,8 C 49 % 1019,5 hPa 0,0 l/m 25,9 km/h NW 15,2 C 24,5 C 14,4 km/h
30.07.2013 15:00 27,4 C 46 % 1019,6 hPa 0,0 l/m 25,9 km/h NW 14,7 C 25,4 C 14,4 km/h
30.07.2013 16:00 29,1 C 44 % 1019,2 hPa 0,0 l/m 13,6 km/h W-SW 15,6 C 28,4 C 7,6 km/h
30.07.2013 17:00 29,5 C 40 % 1019,0 hPa 0,0 l/m 14,3 km/h W 14,5 C 28,8 C 7,9 km/h
30.07.2013 18:00 29,5 C 42 % 1018,6 hPa 0,0 l/m 5,8 km/h W-NW 15,2 C 29,5 C 3,2 km/h
30.07.2013 19:00 26,5 C 44 % 1018,6 hPa 0,0 l/m 18,8 km/h W 13,2 C 24,7 C 10,4 km/h
30.07.2013 20:00 22,3 C 57 % 1018,8 hPa 0,0 l/m 0,0 km/h N-NW 13,4 C 22,3 C 0,0 km/h
30.07.2013 21:00 21,6 C 61 % 1018,9 hPa 0,0 l/m 13,0 km/h S-SW 13,7 C 19,6 C 7,2 km/h
30.07.2013 22:00 21,3 C 64 % 1019,4 hPa 0,0 l/m 0,6 km/h W 14,2 C 21,3 C 0,4 km/h
30.07.2013 23:00 20,9 C 67 % 1019,4 hPa 0,0 l/m 7,1 km/h NW 14,5 C 20,6 C 4,0 km/h
31.07.2013 00:00 20,6 C 68 % 1019,4 hPa 0,0 l/m 15,6 km/h W 14,5 C 17,8 C 8,6 km/h
31.07.2013 01:00 20,3 C 69 % 1019,4 hPa 0,0 l/m 16,2 km/h S-SW 14,4 C 17,3 C 9,0 km/h
31.07.2013 02:00 20,4 C 69 % 1018,8 hPa 0,0 l/m 0,0 km/h W-NW 14,5 C 20,4 C 0,0 km/h
31.07.2013 03:00 19,9 C 71 % 1019,1 hPa 0,0 l/m 0,0 km/h W-NW 14,5 C 19,9 C 0,0 km/h
31.07.2013 04:00 19,7 C 71 % 1018,8 hPa 0,0 l/m 2,6 km/h W-NW 14,3 C 19,7 C 1,4 km/h
31.07.2013 05:00 18,1 C 75 % 1018,9 hPa 0,0 l/m 0,0 km/h NO 13,6 C 18,1 C 0,0 km/h
31.07.2013 06:00 17,3 C 80 % 1019,2 hPa 0,0 l/m 0,0 km/h W 13,8 C 17,3 C 0,0 km/h
31.07.2013 07:00 19,4 C 78 % 1019,5 hPa 0,0 l/m 1,9 km/h W-NW 15,5 C 19,4 C 1,1 km/h
31.07.2013 08:00 22,6 C 65 % 1019,7 hPa 0,0 l/m 18,8 km/h NW 15,7 C 19,7 C 10,4 km/h
31.07.2013 09:00 27,3 C 55 % 1019,8 hPa 0,0 l/m 19,4 km/h W 17,4 C 25,7 C 10,8 km/h
31.07.2013 10:00 27,5 C 53 % 1019,8 hPa 0,0 l/m 6,5 km/h W 17,0 C 27,5 C 3,6 km/h
31.07.2013 11:00 29,0 C 50 % 1019,6 hPa 0,0 l/m 5,2 km/h W-SW 17,5 C 29,0 C 2,9 km/h
31.07.2013 12:00 27,6 C 52 % 1019,5 hPa 0,0 l/m 14,9 km/h W 16,8 C 26,5 C 8,3 km/h
31.07.2013 13:00 29,2 C 47 % 1019,3 hPa 0,0 l/m 0,0 km/h NW 16,7 C 29,2 C 0,0 km/h
31.07.2013 14:00 29,8 C 45 % 1018,9 hPa 0,0 l/m 6,5 km/h W 16,6 C 29,8 C 3,6 km/h
31.07.2013 15:00 32,1 C 43 % 1018,1 hPa 0,0 l/m 1,3 km/h N 17,9 C 32,1 C 0,7 km/h
31.07.2013 16:00 35,6 C 36 % 1017,9 hPa 0,0 l/m 1,3 km/h W 18,2 C 35,6 C 0,7 km/h
31.07.2013 17:00 37,4 C 32 % 1017,4 hPa 0,0 l/m 3,2 km/h O-NO 17,9 C 37,4 C 1,8 km/h
31.07.2013 18:00 37,1 C 30 % 1017,3 hPa 0,0 l/m 8,4 km/h N 16,6 C 37,1 C 4,7 km/h
31.07.2013 19:00 35,7 C 32 % 1017,1 hPa 0,0 l/m 0,0 km/h O 16,4 C 35,7 C 0,0 km/h
31.07.2013 20:00 25,9 C 50 % 1016,9 hPa 0,0 l/m 0,0 km/h O-NO 14,7 C 25,9 C 0,0 km/h
31.07.2013 21:00 21,3 C 66 % 1016,8 hPa 0,0 l/m 0,0 km/h S-SO 14,7 C 21,3 C 0,0 km/h
31.07.2013 22:00 19,0 C 75 % 1017,1 hPa 0,0 l/m 2,6 km/h S 14,5 C 19,0 C 1,4 km/h
31.07.2013 23:00 17,9 C 78 % 1017,0 hPa 0,0 l/m 0,6 km/h S 14,0 C 17,9 C 0,4 km/h
01.08.2013 00:00 17,9 C 79 % 1016,8 hPa 0,0 l/m 2,6 km/h O-NO 14,2 C 17,9 C 1,4 km/h
01.08.2013 01:00 17,4 C 80 % 1016,7 hPa 0,0 l/m 0,0 km/h N-NW 13,9 C 17,4 C 0,0 km/h
01.08.2013 02:00 16,5 C 81 % 1016,5 hPa 0,0 l/m 0,0 km/h O-SO 13,2 C 16,5 C 0,0 km/h
01.08.2013 03:00 15,2 C 81 % 1016,2 hPa 0,0 l/m 0,0 km/h O-SO 12,0 C 15,2 C 0,0 km/h
01.08.2013 04:00 14,1 C 81 % 1015,9 hPa 0,0 l/m 0,0 km/h NO 10,9 C 14,1 C 0,0 km/h
01.08.2013 05:00 13,9 C 78 % 1015,8 hPa 0,0 l/m 0,0 km/h S-SO 10,1 C 13,9 C 0,0 km/h
01.08.2013 06:00 13,5 C 77 % 1015,9 hPa 0,0 l/m 0,0 km/h SO 9,5 C 13,5 C 0,0 km/h
01.08.2013 07:00 14,4 C 74 % 1015,9 hPa 0,0 l/m 0,0 km/h O-SO 9,8 C 14,4 C 0,0 km/h
01.08.2013 08:00 24,9 C 70 % 1015,8 hPa 0,0 l/m 0,0 km/h N-NW 19,0 C 24,9 C 0,0 km/h
01.08.2013 09:00 28,6 C 53 % 1016,0 hPa 0,0 l/m 0,0 km/h NO 18,1 C 28,6 C 0,0 km/h
01.08.2013 10:00 30,9 C 49 % 1015,9 hPa 0,0 l/m 0,0 km/h W 18,9 C 30,9 C 0,0 km/h
01.08.2013 11:00 32,2 C 45 % 1015,3 hPa 0,0 l/m 0,0 km/h W 18,7 C 32,2 C 0,0 km/h
01.08.2013 12:00 31,5 C 48 % 1014,9 hPa 0,0 l/m 0,0 km/h N-NW 19,1 C 31,5 C 0,0 km/h
01.08.2013 13:00 32,4 C 47 % 1014,5 hPa 0,0 l/m 6,5 km/h S 19,6 C 32,4 C 3,6 km/h
01.08.2013 14:00 33,1 C 45 % 1013,9 hPa 0,0 l/m 7,8 km/h NO 19,5 C 33,1 C 4,3 km/h
01.08.2013 15:00 37,1 C 40 % 1013,3 hPa 0,0 l/m 0,0 km/h NW 21,2 C 37,1 C 0,0 km/h
01.08.2013 16:00 39,1 C 32 % 1013,2 hPa 0,0 l/m 0,0 km/h W-NW 19,3 C 39,1 C 0,0 km/h
01.08.2013 17:00 41,9 C 29 % 1012,5 hPa 0,0 l/m 0,0 km/h W-NW 20,1 C 41,9 C 0,0 km/h
01.08.2013 18:00 40,8 C 24 % 1012,3 hPa 0,0 l/m 0,0 km/h NW 16,2 C 40,8 C 0,0 km/h
01.08.2013 19:00 38,6 C 28 % 1012,2 hPa 0,0 l/m 0,0 km/h O 16,8 C 38,6 C 0,0 km/h
01.08.2013 20:00 27,2 C 48 % 1012,2 hPa 0,0 l/m 0,0 km/h S 15,2 C 27,2 C 0,0 km/h
01.08.2013 21:00 22,6 C 58 % 1012,8 hPa 0,0 l/m 18,8 km/h O 13,9 C 19,7 C 10,4 km/h
01.08.2013 22:00 20,9 C 67 % 1012,9 hPa 0,0 l/m 0,0 km/h S-SO 14,5 C 20,9 C 0,0 km/h
01.08.2013 23:00 20,0 C 70 % 1013,2 hPa 0,0 l/m 0,0 km/h S-SO 14,4 C 20,0 C 0,0 km/h
02.08.2013 00:00 19,2 C 73 % 1013,5 hPa 0,0 l/m 0,0 km/h S-SO 14,2 C 19,2 C 0,0 km/h
02.08.2013 01:00 18,5 C 75 % 1013,8 hPa 0,0 l/m 0,0 km/h S-SO 14,0 C 18,5 C 0,0 km/h
02.08.2013 02:00 18,1 C 76 % 1013,7 hPa 0,0 l/m 0,0 km/h S 13,8 C 18,1 C 0,0 km/h
02.08.2013 03:00 17,8 C 77 % 1013,6 hPa 0,0 l/m 0,0 km/h S-SO 13,7 C 17,8 C 0,0 km/h
02.08.2013 04:00 17,1 C 78 % 1013,5 hPa 0,0 l/m 0,0 km/h O-SO 13,2 C 17,1 C 0,0 km/h
02.08.2013 05:00 17,1 C 79 % 1013,6 hPa 0,0 l/m 0,0 km/h O 13,4 C 17,1 C 0,0 km/h
02.08.2013 06:00 16,9 C 81 % 1013,7 hPa 0,0 l/m 0,0 km/h S 13,6 C 16,9 C 0,0 km/h
02.08.2013 07:00 18,3 C 80 % 1013,6 hPa 0,0 l/m 3,2 km/h S 14,8 C 18,3 C 1,8 km/h
02.08.2013 08:00 26,2 C 64 % 1013,8 hPa 0,0 l/m 7,8 km/h O-SO 18,8 C 25,9 C 4,3 km/h
02.08.2013 09:00 30,9 C 53 % 1013,8 hPa 0,0 l/m 0,0 km/h W 20,2 C 30,9 C 0,0 km/h
02.08.2013 10:00 35,2 C 45 % 1013,5 hPa 0,0 l/m 0,0 km/h N-NW 21,4 C 35,2 C 0,0 km/h
02.08.2013 11:00 36,6 C 39 % 1013,5 hPa 0,0 l/m 0,0 km/h W 20,3 C 36,6 C 0,0 km/h
02.08.2013 12:00 35,1 C 41 % 1013,2 hPa 0,0 l/m 3,9 km/h W-NW 19,8 C 35,1 C 2,2 km/h
02.08.2013 13:00 35,8 C 41 % 1012,7 hPa 0,0 l/m 9,1 km/h N-NW 20,5 C 35,8 C 5,0 km/h
02.08.2013 14:00 35,6 C 40 % 1012,3 hPa 0,0 l/m 5,8 km/h W-NW 19,9 C 35,6 C 3,2 km/h
02.08.2013 15:00 38,4 C 31 % 1011,8 hPa 0,0 l/m 3,2 km/h NW 18,2 C 38,4 C 1,8 km/h
02.08.2013 16:00 39,8 C 27 % 1011,7 hPa 0,0 l/m 9,7 km/h N-NW 17,2 C 39,8 C 5,4 km/h
02.08.2013 17:00 43,1 C 27 % 1011,4 hPa 0,0 l/m 2,6 km/h N-NW 20,0 C 43,1 C 1,4 km/h
02.08.2013 18:00 38,3 C 32 % 1011,3 hPa 0,0 l/m 0,0 km/h O-SO 18,6 C 38,3 C 0,0 km/h
02.08.2013 19:00 35,1 C 43 % 1011,3 hPa 0,0 l/m 0,0 km/h SO 20,6 C 35,1 C 0,0 km/h
02.08.2013 20:00 28,5 C 57 % 1011,5 hPa 0,0 l/m 0,0 km/h S-SO 19,1 C 28,5 C 0,0 km/h
02.08.2013 21:00 23,9 C 65 % 1011,7 hPa 0,0 l/m 0,0 km/h NO 16,9 C 23,9 C 0,0 km/h
02.08.2013 22:00 22,6 C 66 % 1012,1 hPa 0,0 l/m 0,0 km/h S-SO 15,9 C 22,6 C 0,0 km/h
02.08.2013 23:00 21,6 C 68 % 1012,3 hPa 0,0 l/m 0,0 km/h S-SW 15,4 C 21,6 C 0,0 km/h
03.08.2013 00:00 20,5 C 70 % 1012,1 hPa 0,0 l/m 0,0 km/h S 14,8 C 20,5 C 0,0 km/h
03.08.2013 01:00 20,1 C 71 % 1012,2 hPa 0,0 l/m 3,2 km/h S 14,7 C 20,1 C 1,8 km/h
03.08.2013 02:00 19,8 C 71 % 1012,0 hPa 0,0 l/m 0,6 km/h O 14,4 C 19,8 C 0,4 km/h
03.08.2013 03:00 18,9 C 74 % 1013,1 hPa 0,0 l/m 0,0 km/h O-SO 14,2 C 18,9 C 0,0 km/h
03.08.2013 04:00 18,4 C 77 % 1014,5 hPa 0,0 l/m 0,0 km/h O-NO 14,3 C 18,4 C 0,0 km/h
03.08.2013 05:00 18,8 C 77 % 1015,2 hPa 0,0 l/m 0,0 km/h S-SO 14,7 C 18,8 C 0,0 km/h
03.08.2013 06:00 18,9 C 77 % 1016,6 hPa 0,0 l/m 0,0 km/h S 14,8 C 18,9 C 0,0 km/h
03.08.2013 07:00 19,1 C 79 % 1016,7 hPa 0,0 l/m 3,9 km/h NO 15,4 C 19,1 C 2,2 km/h
03.08.2013 08:00 24,5 C 68 % 1017,0 hPa 0,0 l/m 0,0 km/h N 18,2 C 24,5 C 0,0 km/h
03.08.2013 09:00 31,2 C 48 % 1017,1 hPa 0,0 l/m 0,0 km/h O-NO 18,9 C 31,2 C 0,0 km/h
03.08.2013 10:00 29,6 C 51 % 1016,5 hPa 0,0 l/m 0,6 km/h N 18,4 C 29,6 C 0,4 km/h
03.08.2013 11:00 31,8 C 42 % 1016,9 hPa 0,0 l/m 0,0 km/h NO 17,3 C 31,8 C 0,0 km/h
03.08.2013 12:00 29,5 C 47 % 1017,5 hPa 0,0 l/m 0,0 km/h NO 17,0 C 29,5 C 0,0 km/h
03.08.2013 13:00 32,3 C 44 % 1017,1 hPa 0,0 l/m 7,1 km/h NO 18,5 C 32,3 C 4,0 km/h
03.08.2013 14:00 32,6 C 42 % 1016,9 hPa 0,0 l/m 5,8 km/h O-NO 18,0 C 32,6 C 3,2 km/h
03.08.2013 15:00 31,6 C 43 % 1017,3 hPa 0,0 l/m 7,1 km/h NO 17,5 C 31,6 C 4,0 km/h
03.08.2013 16:00 35,9 C 37 % 1017,2 hPa 0,0 l/m 20,1 km/h NO 18,9 C 35,9 C 11,2 km/h
03.08.2013 17:00 37,4 C 33 % 1016,8 hPa 0,0 l/m 5,2 km/h N 18,4 C 37,4 C 2,9 km/h
03.08.2013 18:00 34,2 C 39 % 1017,2 hPa 0,0 l/m 0,0 km/h N-NO 18,2 C 34,2 C 0,0 km/h
03.08.2013 19:00 28,9 C 52 % 1017,6 hPa 0,0 l/m 0,0 km/h O-NO 18,0 C 28,9 C 0,0 km/h
03.08.2013 20:00 26,9 C 57 % 1017,5 hPa 0,0 l/m 5,2 km/h NO 17,6 C 26,9 C 2,9 km/h
03.08.2013 21:00 24,5 C 58 % 1018,2 hPa 0,0 l/m 0,0 km/h NO 15,7 C 24,5 C 0,0 km/h
03.08.2013 22:00 21,6 C 65 % 1018,7 hPa 0,0 l/m 0,0 km/h NO 14,7 C 21,6 C 0,0 km/h
03.08.2013 23:00 20,1 C 71 % 1019,1 hPa 0,0 l/m 0,0 km/h O-NO 14,7 C 20,1 C 0,0 km/h
04.08.2013 00:00 19,1 C 75 % 1019,1 hPa 0,0 l/m 0,0 km/h O-NO 14,6 C 19,1 C 0,0 km/h
04.08.2013 01:00 18,3 C 79 % 1019,3 hPa 0,0 l/m 0,0 km/h SO 14,6 C 18,3 C 0,0 km/h
04.08.2013 02:00 17,5 C 79 % 1019,0 hPa 0,0 l/m 0,0 km/h S-SO 13,8 C 17,5 C 0,0 km/h
04.08.2013 03:00 16,9 C 80 % 1018,8 hPa 0,0 l/m 0,0 km/h O-SO 13,4 C 16,9 C 0,0 km/h
04.08.2013 04:00 16,3 C 80 % 1018,4 hPa 0,0 l/m 0,0 km/h SO 12,8 C 16,3 C 0,0 km/h
04.08.2013 05:00 16,9 C 80 % 1018,6 hPa 0,0 l/m 0,0 km/h W-SW 13,4 C 16,9 C 0,0 km/h
04.08.2013 06:00 17,3 C 80 % 1018,8 hPa 0,0 l/m 0,0 km/h NO 13,8 C 17,3 C 0,0 km/h
04.08.2013 07:00 17,6 C 80 % 1019,2 hPa 0,0 l/m 0,0 km/h S-SO 14,1 C 17,6 C 0,0 km/h
04.08.2013 08:00 19,9 C 79 % 1019,3 hPa 0,0 l/m 0,0 km/h N-NW 16,1 C 19,9 C 0,0 km/h
04.08.2013 09:00 22,1 C 71 % 1019,5 hPa 0,0 l/m 1,9 km/h N 16,6 C 22,1 C 1,1 km/h
04.08.2013 10:00 22,6 C 64 % 1020,5 hPa 0,0 l/m 0,0 km/h S-SO 15,4 C 22,6 C 0,0 km/h
04.08.2013 11:00 19,0 C 79 % 1019,7 hPa 0,0 l/m 22,0 km/h N 15,3 C 14,5 C 12,2 km/h
04.08.2013 12:00 19,3 C 80 % 1019,5 hPa 0,5 l/m 1,9 km/h W 15,8 C 19,3 C 1,1 km/h
04.08.2013 13:00 26,4 C 65 % 1020,1 hPa 0,0 l/m 2,6 km/h S 19,3 C 26,4 C 1,4 km/h
04.08.2013 14:00 27,3 C 57 % 1019,8 hPa 0,0 l/m 3,9 km/h W 18,0 C 27,3 C 2,2 km/h
04.08.2013 15:00 31,1 C 50 % 1019,5 hPa 0,0 l/m 5,2 km/h N-NO 19,4 C 31,1 C 2,9 km/h
04.08.2013 16:00 34,2 C 43 % 1019,1 hPa 0,0 l/m 1,3 km/h NO 19,8 C 34,2 C 0,7 km/h
04.08.2013 17:00 36,4 C 38 % 1018,8 hPa 0,0 l/m 0,0 km/h O-NO 19,8 C 36,4 C 0,0 km/h
04.08.2013 18:00 36,4 C 37 % 1018,2 hPa 0,0 l/m 0,0 km/h N-NO 19,3 C 36,4 C 0,0 km/h
04.08.2013 19:00 33,9 C 41 % 1018,1 hPa 0,0 l/m 0,0 km/h W-NW 18,8 C 33,9 C 0,0 km/h
04.08.2013 20:00 25,0 C 59 % 1018,2 hPa 0,0 l/m 0,0 km/h O 16,4 C 25,0 C 0,0 km/h
04.08.2013 21:00 21,4 C 72 % 1018,7 hPa 0,0 l/m 0,0 km/h S-SO 16,1 C 21,4 C 0,0 km/h
04.08.2013 22:00 19,7 C 78 % 1018,8 hPa 0,0 l/m 11,7 km/h S 15,8 C 17,8 C 6,5 km/h
04.08.2013 23:00 18,7 C 80 % 1018,7 hPa 0,0 l/m 0,0 km/h SO 15,2 C 18,7 C 0,0 km/h
Min-Datum _ 01.08.13 01.08.13 02.08.13 - 29.07.13 - 01.08.13 01.08.13 29.07.13
_ Min-Zeit 06:19 18:19 18:19 - 00:19 - 06:19 06:19 00:19
Minimum _ 13,5 C 24 % 1011,3 hPa - 0,0 km/h - 9,5 C 13,5 C 0,0 km/h
Max-Datum _ 02.08.13 29.07.13 30.07.13 29.07.13 30.07.13 - 02.08.13 02.08.13 30.07.13
_ Max-Zeit 17:19 19:19 09:19 16:19 14:19 - 10:19 17:19 14:19
Maximum _ 43,1 C 82 % 1020,5 hPa 7,3 l/m 25,9 km/h
NW
- 21,4 C 43,1 C 14,4 km/h
NW
Durchschnitt _ 24,0 C 61 % 1016,6 hPa #30,0 l/m 3,3 km/h S-SO 15,3 C 23,8 C 1,8 km/h
www.sexauwetter.de